sensor_id;sensor_type;location;lat;lon;timestamp;temperature;humidity
13164;DHT22;6647;53.688;10.746;2022-08-01T00:00:10;19.60;1.00
13164;DHT22;6647;53.688;10.746;2022-08-01T00:01:31;19.50;1.00
13164;DHT22;6647;53.688;10.746;2022-08-01T00:02:52;19.50;1.00
13164;DHT22;6647;53.688;10.746;2022-08-01T00:04:12;19.50;1.00
13164;DHT22;6647;53.688;10.746;2022-08-01T00:05:33;19.40;1.00
13164;DHT22;6647;53.688;10.746;2022-08-01T00:06:54;19.40;1.00
13164;DHT22;6647;53.688;10.746;2022-08-01T00:08:15;19.40;1.00
13164;DHT22;6647;53.688;10.746;2022-08-01T00:09:36;19.40;1.00
13164;DHT22;6647;53.688;10.746;2022-08-01T00:10:57;19.40;1.00
13164;DHT22;6647;53.688;10.746;2022-08-01T00:12:17;19.40;1.00
13164;DHT22;6647;53.688;10.746;2022-08-01T00:13:38;19.40;1.00
13164;DHT22;6647;53.688;10.746;2022-08-01T00:14:59;19.30;1.00
13164;DHT22;6647;53.688;10.746;2022-08-01T00:16:21;19.30;1.00
13164;DHT22;6647;53.688;10.746;2022-08-01T00:17:43;19.30;1.00
13164;DHT22;6647;53.688;10.746;2022-08-01T00:19:04;19.30;1.00
13164;DHT22;6647;53.688;10.746;2022-08-01T00:20:25;19.30;1.00
13164;DHT22;6647;53.688;10.746;2022-08-01T00:21:46;19.20;1.00
13164;DHT22;6647;53.688;10.746;2022-08-01T00:23:07;19.20;1.00
13164;DHT22;6647;53.688;10.746;2022-08-01T00:24:28;19.20;1.00
13164;DHT22;6647;53.688;10.746;2022-08-01T00:25:49;19.20;1.00
13164;DHT22;6647;53.688;10.746;2022-08-01T00:27:09;19.20;1.00
13164;DHT22;6647;53.688;10.746;2022-08-01T00:28:30;19.20;1.00
13164;DHT22;6647;53.688;10.746;2022-08-01T00:29:51;19.20;1.00
13164;DHT22;6647;53.688;10.746;2022-08-01T00:31:12;19.20;1.00
13164;DHT22;6647;53.688;10.746;2022-08-01T00:32:33;19.20;1.00
13164;DHT22;6647;53.688;10.746;2022-08-01T00:33:54;19.10;1.00
13164;DHT22;6647;53.688;10.746;2022-08-01T00:35:15;19.10;1.00
13164;DHT22;6647;53.688;10.746;2022-08-01T00:36:36;19.10;1.00
13164;DHT22;6647;53.688;10.746;2022-08-01T00:37:57;19.10;1.00
13164;DHT22;6647;53.688;10.746;2022-08-01T00:39:18;19.10;1.00
13164;DHT22;6647;53.688;10.746;2022-08-01T00:40:39;19.10;1.00
13164;DHT22;6647;53.688;10.746;2022-08-01T00:42:05;19.10;1.00
13164;DHT22;6647;53.688;10.746;2022-08-01T00:43:27;19.10;1.00
13164;DHT22;6647;53.688;10.746;2022-08-01T00:44:47;19.10;1.00
13164;DHT22;6647;53.688;10.746;2022-08-01T00:46:11;19.10;1.00
13164;DHT22;6647;53.688;10.746;2022-08-01T00:47:32;19.10;1.00
13164;DHT22;6647;53.688;10.746;2022-08-01T00:48:53;19.10;1.00
13164;DHT22;6647;53.688;10.746;2022-08-01T00:50:15;19.10;1.00
13164;DHT22;6647;53.688;10.746;2022-08-01T00:51:36;19.10;1.00
13164;DHT22;6647;53.688;10.746;2022-08-01T00:52:58;19.10;1.00
13164;DHT22;6647;53.688;10.746;2022-08-01T00:54:20;19.00;1.00
13164;DHT22;6647;53.688;10.746;2022-08-01T00:55:41;19.00;1.00
13164;DHT22;6647;53.688;10.746;2022-08-01T00:57:03;19.00;1.00
13164;DHT22;6647;53.688;10.746;2022-08-01T00:58:24;19.00;1.00
13164;DHT22;6647;53.688;10.746;2022-08-01T00:59:45;19.00;1.00
13164;DHT22;6647;53.688;10.746;2022-08-01T01:01:06;19.00;1.00
13164;DHT22;6647;53.688;10.746;2022-08-01T01:02:26;19.00;1.00
13164;DHT22;6647;53.688;10.746;2022-08-01T01:03:49;19.00;1.00
13164;DHT22;6647;53.688;10.746;2022-08-01T01:05:10;19.00;1.00
13164;DHT22;6647;53.688;10.746;2022-08-01T01:08:08;19.00;1.00
13164;DHT22;6647;53.688;10.746;2022-08-01T01:13:25;19.00;1.00
13164;DHT22;6647;53.688;10.746;2022-08-01T01:15:08;18.90;1.00
13164;DHT22;6647;53.688;10.746;2022-08-01T01:16:30;18.90;1.00
13164;DHT22;6647;53.688;10.746;2022-08-01T01:18:09;18.90;1.00
13164;DHT22;6647;53.688;10.746;2022-08-01T01:19:33;18.90;1.00
13164;DHT22;6647;53.688;10.746;2022-08-01T01:21:07;18.90;1.00
13164;DHT22;6647;53.688;10.746;2022-08-01T01:24:37;18.80;1.00
13164;DHT22;6647;53.688;10.746;2022-08-01T01:27:57;18.80;1.00
13164;DHT22;6647;53.688;10.746;2022-08-01T01:29:28;18.80;1.00
13164;DHT22;6647;53.688;10.746;2022-08-01T01:30:51;18.80;1.00
13164;DHT22;6647;53.688;10.746;2022-08-01T01:32:24;18.80;1.00
13164;DHT22;6647;53.688;10.746;2022-08-01T01:33:48;18.80;1.00
13164;DHT22;6647;53.688;10.746;2022-08-01T01:35:19;18.80;1.00
13164;DHT22;6647;53.688;10.746;2022-08-01T01:36:43;18.80;1.00
13164;DHT22;6647;53.688;10.746;2022-08-01T01:38:09;18.70;1.00
13164;DHT22;6647;53.688;10.746;2022-08-01T01:39:32;18.80;1.00
13164;DHT22;6647;53.688;10.746;2022-08-01T01:40:56;18.80;1.00
13164;DHT22;6647;53.688;10.746;2022-08-01T01:42:19;18.80;1.00
13164;DHT22;6647;53.688;10.746;2022-08-01T01:43:40;18.80;1.00
13164;DHT22;6647;53.688;10.746;2022-08-01T01:45:03;18.70;1.00
13164;DHT22;6647;53.688;10.746;2022-08-01T01:46:25;18.70;1.00
13164;DHT22;6647;53.688;10.746;2022-08-01T01:47:48;18.70;1.00
13164;DHT22;6647;53.688;10.746;2022-08-01T01:49:10;18.70;1.00
13164;DHT22;6647;53.688;10.746;2022-08-01T01:50:32;18.70;1.00
13164;DHT22;6647;53.688;10.746;2022-08-01T01:51:55;18.70;1.00
13164;DHT22;6647;53.688;10.746;2022-08-01T01:53:19;18.70;1.00
13164;DHT22;6647;53.688;10.746;2022-08-01T01:54:48;18.70;1.00
13164;DHT22;6647;53.688;10.746;2022-08-01T01:56:10;18.70;1.00
13164;DHT22;6647;53.688;10.746;2022-08-01T01:57:32;18.60;1.00
13164;DHT22;6647;53.688;10.746;2022-08-01T01:58:59;18.60;1.00
13164;DHT22;6647;53.688;10.746;2022-08-01T02:00:21;18.60;1.00
13164;DHT22;6647;53.688;10.746;2022-08-01T02:01:42;18.60;1.00
13164;DHT22;6647;53.688;10.746;2022-08-01T02:03:06;18.60;1.00
13164;DHT22;6647;53.688;10.746;2022-08-01T02:04:28;18.60;1.00
13164;DHT22;6647;53.688;10.746;2022-08-01T02:05:51;18.60;1.00
13164;DHT22;6647;53.688;10.746;2022-08-01T02:07:17;18.60;1.00
13164;DHT22;6647;53.688;10.746;2022-08-01T02:08:41;18.60;1.00
13164;DHT22;6647;53.688;10.746;2022-08-01T02:10:04;18.60;1.00
13164;DHT22;6647;53.688;10.746;2022-08-01T02:11:25;18.60;1.00
13164;DHT22;6647;53.688;10.746;2022-08-01T02:12:48;18.60;1.00
13164;DHT22;6647;53.688;10.746;2022-08-01T02:14:11;18.60;1.00
13164;DHT22;6647;53.688;10.746;2022-08-01T02:15:35;18.60;1.00
13164;DHT22;6647;53.688;10.746;2022-08-01T02:16:59;18.60;1.00
13164;DHT22;6647;53.688;10.746;2022-08-01T02:18:21;18.60;1.00
13164;DHT22;6647;53.688;10.746;2022-08-01T02:19:42;18.60;1.00
13164;DHT22;6647;53.688;10.746;2022-08-01T02:21:05;18.60;1.00
13164;DHT22;6647;53.688;10.746;2022-08-01T02:23:31;18.60;1.00
13164;DHT22;6647;53.688;10.746;2022-08-01T02:24:39;18.60;1.00
13164;DHT22;6647;53.688;10.746;2022-08-01T02:26:03;18.60;1.00
13164;DHT22;6647;53.688;10.746;2022-08-01T02:27:33;18.60;1.00
13164;DHT22;6647;53.688;10.746;2022-08-01T02:29:04;18.60;1.00
13164;DHT22;6647;53.688;10.746;2022-08-01T02:30:32;18.60;1.00
13164;DHT22;6647;53.688;10.746;2022-08-01T02:31:54;18.60;1.00
13164;DHT22;6647;53.688;10.746;2022-08-01T02:34:38;18.60;1.00
13164;DHT22;6647;53.688;10.746;2022-08-01T02:36:01;18.60;1.00
13164;DHT22;6647;53.688;10.746;2022-08-01T02:37:23;18.60;1.00
13164;DHT22;6647;53.688;10.746;2022-08-01T02:38:46;18.60;1.00
13164;DHT22;6647;53.688;10.746;2022-08-01T02:40:08;18.60;1.00
13164;DHT22;6647;53.688;10.746;2022-08-01T02:41:31;18.60;1.00
13164;DHT22;6647;53.688;10.746;2022-08-01T02:42:54;18.60;1.00
13164;DHT22;6647;53.688;10.746;2022-08-01T02:44:23;18.60;1.00
13164;DHT22;6647;53.688;10.746;2022-08-01T02:45:49;18.60;1.00
13164;DHT22;6647;53.688;10.746;2022-08-01T02:47:12;18.60;1.00
13164;DHT22;6647;53.688;10.746;2022-08-01T02:48:35;18.60;1.00
13164;DHT22;6647;53.688;10.746;2022-08-01T02:49:57;18.60;1.00
13164;DHT22;6647;53.688;10.746;2022-08-01T02:51:19;18.60;1.00
13164;DHT22;6647;53.688;10.746;2022-08-01T02:52:44;18.60;1.00
13164;DHT22;6647;53.688;10.746;2022-08-01T02:54:08;18.60;1.00
13164;DHT22;6647;53.688;10.746;2022-08-01T02:55:32;18.60;1.00
13164;DHT22;6647;53.688;10.746;2022-08-01T02:56:55;18.60;1.00
13164;DHT22;6647;53.688;10.746;2022-08-01T02:58:18;18.60;1.00
13164;DHT22;6647;53.688;10.746;2022-08-01T02:59:41;18.50;1.00
13164;DHT22;6647;53.688;10.746;2022-08-01T03:01:05;18.50;1.00
13164;DHT22;6647;53.688;10.746;2022-08-01T03:02:27;18.60;1.00
13164;DHT22;6647;53.688;10.746;2022-08-01T03:03:49;18.50;1.00
13164;DHT22;6647;53.688;10.746;2022-08-01T03:05:15;18.50;1.00
13164;DHT22;6647;53.688;10.746;2022-08-01T03:06:38;18.60;1.00
13164;DHT22;6647;53.688;10.746;2022-08-01T03:07:59;18.50;1.00
13164;DHT22;6647;53.688;10.746;2022-08-01T03:09:21;18.50;1.00
13164;DHT22;6647;53.688;10.746;2022-08-01T03:10:44;18.50;1.00
13164;DHT22;6647;53.688;10.746;2022-08-01T03:12:10;18.60;1.00
13164;DHT22;6647;53.688;10.746;2022-08-01T03:13:33;18.50;1.00
13164;DHT22;6647;53.688;10.746;2022-08-01T03:14:56;18.50;1.00
13164;DHT22;6647;53.688;10.746;2022-08-01T03:16:19;18.50;1.00
13164;DHT22;6647;53.688;10.746;2022-08-01T03:17:44;18.50;1.00
13164;DHT22;6647;53.688;10.746;2022-08-01T03:19:08;18.50;1.00
13164;DHT22;6647;53.688;10.746;2022-08-01T03:20:30;18.50;1.00
13164;DHT22;6647;53.688;10.746;2022-08-01T03:21:54;18.50;1.00
13164;DHT22;6647;53.688;10.746;2022-08-01T03:23:17;18.50;1.00
13164;DHT22;6647;53.688;10.746;2022-08-01T03:24:40;18.50;1.00
13164;DHT22;6647;53.688;10.746;2022-08-01T03:26:02;18.40;1.00
13164;DHT22;6647;53.688;10.746;2022-08-01T03:27:23;18.50;1.00
13164;DHT22;6647;53.688;10.746;2022-08-01T03:28:46;18.50;1.00
13164;DHT22;6647;53.688;10.746;2022-08-01T03:30:08;18.50;1.00
13164;DHT22;6647;53.688;10.746;2022-08-01T03:31:32;18.50;1.00
13164;DHT22;6647;53.688;10.746;2022-08-01T03:32:55;18.50;1.00
13164;DHT22;6647;53.688;10.746;2022-08-01T03:34:17;18.50;1.00
13164;DHT22;6647;53.688;10.746;2022-08-01T03:35:46;18.50;1.00
13164;DHT22;6647;53.688;10.746;2022-08-01T03:37:23;18.50;1.00
13164;DHT22;6647;53.688;10.746;2022-08-01T03:38:48;18.50;1.00
13164;DHT22;6647;53.688;10.746;2022-08-01T03:41:01;18.50;1.00
13164;DHT22;6647;53.688;10.746;2022-08-01T03:41:58;18.50;1.00
13164;DHT22;6647;53.688;10.746;2022-08-01T03:43:30;18.50;1.00
13164;DHT22;6647;53.688;10.746;2022-08-01T03:44:56;18.50;1.00
13164;DHT22;6647;53.688;10.746;2022-08-01T03:46:42;18.50;1.00
13164;DHT22;6647;53.688;10.746;2022-08-01T03:48:08;18.50;1.00
13164;DHT22;6647;53.688;10.746;2022-08-01T03:49:32;18.50;1.00
13164;DHT22;6647;53.688;10.746;2022-08-01T03:50:53;18.50;1.00
13164;DHT22;6647;53.688;10.746;2022-08-01T03:52:15;18.50;1.00
13164;DHT22;6647;53.688;10.746;2022-08-01T03:53:38;18.40;1.00
13164;DHT22;6647;53.688;10.746;2022-08-01T03:55:04;18.50;1.00
13164;DHT22;6647;53.688;10.746;2022-08-01T03:56:27;18.50;1.00
13164;DHT22;6647;53.688;10.746;2022-08-01T03:57:52;18.50;1.00
13164;DHT22;6647;53.688;10.746;2022-08-01T03:59:15;18.40;1.00
13164;DHT22;6647;53.688;10.746;2022-08-01T04:00:37;18.40;1.00
13164;DHT22;6647;53.688;10.746;2022-08-01T04:01:59;18.40;1.00
13164;DHT22;6647;53.688;10.746;2022-08-01T04:03:22;18.40;1.00
13164;DHT22;6647;53.688;10.746;2022-08-01T04:04:44;18.40;1.00
13164;DHT22;6647;53.688;10.746;2022-08-01T04:06:06;18.40;1.00
13164;DHT22;6647;53.688;10.746;2022-08-01T04:07:31;18.40;1.00
13164;DHT22;6647;53.688;10.746;2022-08-01T04:08:53;18.50;1.00
13164;DHT22;6647;53.688;10.746;2022-08-01T04:10:17;18.50;1.00
13164;DHT22;6647;53.688;10.746;2022-08-01T04:11:38;18.50;1.00
13164;DHT22;6647;53.688;10.746;2022-08-01T04:12:59;18.50;1.00
13164;DHT22;6647;53.688;10.746;2022-08-01T04:14:20;18.50;1.00
13164;DHT22;6647;53.688;10.746;2022-08-01T04:15:41;18.50;1.00
13164;DHT22;6647;53.688;10.746;2022-08-01T04:17:02;18.50;1.00
13164;DHT22;6647;53.688;10.746;2022-08-01T04:18:23;18.50;1.00
13164;DHT22;6647;53.688;10.746;2022-08-01T04:19:44;18.40;1.00
13164;DHT22;6647;53.688;10.746;2022-08-01T04:21:05;18.40;1.00
13164;DHT22;6647;53.688;10.746;2022-08-01T04:22:26;18.40;1.00
13164;DHT22;6647;53.688;10.746;2022-08-01T04:23:49;18.40;1.00
13164;DHT22;6647;53.688;10.746;2022-08-01T04:25:26;18.50;1.00
13164;DHT22;6647;53.688;10.746;2022-08-01T04:26:49;18.40;1.00
13164;DHT22;6647;53.688;10.746;2022-08-01T04:28:13;18.40;1.00
13164;DHT22;6647;53.688;10.746;2022-08-01T04:29:38;18.40;1.00
13164;DHT22;6647;53.688;10.746;2022-08-01T04:31:00;18.40;1.00
13164;DHT22;6647;53.688;10.746;2022-08-01T04:32:22;18.40;1.00
13164;DHT22;6647;53.688;10.746;2022-08-01T04:33:47;18.50;1.00
13164;DHT22;6647;53.688;10.746;2022-08-01T04:35:12;18.40;1.00
13164;DHT22;6647;53.688;10.746;2022-08-01T04:36:37;18.50;1.00
13164;DHT22;6647;53.688;10.746;2022-08-01T04:37:59;18.40;1.00
13164;DHT22;6647;53.688;10.746;2022-08-01T04:39:24;18.40;1.00
13164;DHT22;6647;53.688;10.746;2022-08-01T04:40:48;18.40;1.00
13164;DHT22;6647;53.688;10.746;2022-08-01T04:42:11;18.40;1.00
13164;DHT22;6647;53.688;10.746;2022-08-01T04:43:34;18.40;1.00
13164;DHT22;6647;53.688;10.746;2022-08-01T04:44:55;18.40;1.00
13164;DHT22;6647;53.688;10.746;2022-08-01T04:46:16;18.40;1.00
13164;DHT22;6647;53.688;10.746;2022-08-01T04:47:39;18.50;1.00
13164;DHT22;6647;53.688;10.746;2022-08-01T04:49:04;18.50;1.00
13164;DHT22;6647;53.688;10.746;2022-08-01T04:50:25;18.50;1.00
13164;DHT22;6647;53.688;10.746;2022-08-01T04:51:54;18.40;1.00
13164;DHT22;6647;53.688;10.746;2022-08-01T04:53:19;18.40;1.00
13164;DHT22;6647;53.688;10.746;2022-08-01T04:54:42;18.40;1.00
13164;DHT22;6647;53.688;10.746;2022-08-01T04:56:03;18.40;1.00
13164;DHT22;6647;53.688;10.746;2022-08-01T04:57:24;18.40;1.00
13164;DHT22;6647;53.688;10.746;2022-08-01T04:58:44;18.40;1.00
13164;DHT22;6647;53.688;10.746;2022-08-01T05:00:06;18.40;1.00
13164;DHT22;6647;53.688;10.746;2022-08-01T05:01:27;18.40;1.00
13164;DHT22;6647;53.688;10.746;2022-08-01T05:02:48;18.50;1.00
13164;DHT22;6647;53.688;10.746;2022-08-01T05:04:09;18.50;1.00
13164;DHT22;6647;53.688;10.746;2022-08-01T05:05:32;18.50;1.00
13164;DHT22;6647;53.688;10.746;2022-08-01T05:06:53;18.50;1.00
13164;DHT22;6647;53.688;10.746;2022-08-01T05:08:14;18.50;1.00
13164;DHT22;6647;53.688;10.746;2022-08-01T05:09:38;18.50;1.00
13164;DHT22;6647;53.688;10.746;2022-08-01T05:10:59;18.50;1.00
13164;DHT22;6647;53.688;10.746;2022-08-01T05:12:20;18.50;1.00
13164;DHT22;6647;53.688;10.746;2022-08-01T05:13:41;18.50;1.00
13164;DHT22;6647;53.688;10.746;2022-08-01T05:15:02;18.50;1.00
13164;DHT22;6647;53.688;10.746;2022-08-01T05:16:23;18.50;1.00
13164;DHT22;6647;53.688;10.746;2022-08-01T05:17:44;18.50;1.00
13164;DHT22;6647;53.688;10.746;2022-08-01T05:19:05;18.50;1.00
13164;DHT22;6647;53.688;10.746;2022-08-01T05:20:26;18.50;1.00
13164;DHT22;6647;53.688;10.746;2022-08-01T05:21:47;18.40;1.00
13164;DHT22;6647;53.688;10.746;2022-08-01T05:23:07;18.40;1.00
13164;DHT22;6647;53.688;10.746;2022-08-01T05:24:28;18.40;1.00
13164;DHT22;6647;53.688;10.746;2022-08-01T05:25:49;18.40;1.00
13164;DHT22;6647;53.688;10.746;2022-08-01T05:27:10;18.40;1.00
13164;DHT22;6647;53.688;10.746;2022-08-01T05:28:31;18.40;1.00
13164;DHT22;6647;53.688;10.746;2022-08-01T05:29:52;18.30;1.00
13164;DHT22;6647;53.688;10.746;2022-08-01T05:31:13;18.40;1.00
13164;DHT22;6647;53.688;10.746;2022-08-01T05:32:34;18.30;1.00
13164;DHT22;6647;53.688;10.746;2022-08-01T05:33:55;18.40;1.00
13164;DHT22;6647;53.688;10.746;2022-08-01T05:35:16;18.40;1.00
13164;DHT22;6647;53.688;10.746;2022-08-01T05:36:37;18.40;1.00
13164;DHT22;6647;53.688;10.746;2022-08-01T05:37:58;18.30;1.00
13164;DHT22;6647;53.688;10.746;2022-08-01T05:39:19;18.30;1.00
13164;DHT22;6647;53.688;10.746;2022-08-01T05:40:40;18.30;1.00
13164;DHT22;6647;53.688;10.746;2022-08-01T05:42:01;18.30;1.00
13164;DHT22;6647;53.688;10.746;2022-08-01T05:43:21;18.30;1.00
13164;DHT22;6647;53.688;10.746;2022-08-01T05:44:42;18.30;1.00
13164;DHT22;6647;53.688;10.746;2022-08-01T05:46:03;18.30;1.00
13164;DHT22;6647;53.688;10.746;2022-08-01T05:47:24;18.40;1.00
13164;DHT22;6647;53.688;10.746;2022-08-01T05:48:45;18.40;1.00
13164;DHT22;6647;53.688;10.746;2022-08-01T05:50:06;18.40;1.00
13164;DHT22;6647;53.688;10.746;2022-08-01T05:51:28;18.40;1.00
13164;DHT22;6647;53.688;10.746;2022-08-01T05:52:49;18.40;1.00
13164;DHT22;6647;53.688;10.746;2022-08-01T05:54:09;18.40;1.00
13164;DHT22;6647;53.688;10.746;2022-08-01T05:55:30;18.40;1.00
13164;DHT22;6647;53.688;10.746;2022-08-01T05:56:51;18.40;1.00
13164;DHT22;6647;53.688;10.746;2022-08-01T05:58:12;18.40;1.00
13164;DHT22;6647;53.688;10.746;2022-08-01T05:59:33;18.40;1.00
13164;DHT22;6647;53.688;10.746;2022-08-01T06:00:54;18.40;1.00
13164;DHT22;6647;53.688;10.746;2022-08-01T06:02:15;18.40;1.00
13164;DHT22;6647;53.688;10.746;2022-08-01T06:03:36;18.40;1.00
13164;DHT22;6647;53.688;10.746;2022-08-01T06:04:57;18.40;1.00
13164;DHT22;6647;53.688;10.746;2022-08-01T06:06:18;18.40;1.00
13164;DHT22;6647;53.688;10.746;2022-08-01T06:07:39;18.40;1.00
13164;DHT22;6647;53.688;10.746;2022-08-01T06:09:00;18.40;1.00
13164;DHT22;6647;53.688;10.746;2022-08-01T06:10:21;18.40;1.00
13164;DHT22;6647;53.688;10.746;2022-08-01T06:11:42;18.40;1.00
13164;DHT22;6647;53.688;10.746;2022-08-01T06:13:03;18.40;1.00
13164;DHT22;6647;53.688;10.746;2022-08-01T06:14:24;18.40;1.00
13164;DHT22;6647;53.688;10.746;2022-08-01T06:15:45;18.40;1.00
13164;DHT22;6647;53.688;10.746;2022-08-01T06:17:06;18.40;1.00
13164;DHT22;6647;53.688;10.746;2022-08-01T06:18:27;18.40;1.00
13164;DHT22;6647;53.688;10.746;2022-08-01T06:19:48;18.40;1.00
13164;DHT22;6647;53.688;10.746;2022-08-01T06:21:09;18.40;1.00
13164;DHT22;6647;53.688;10.746;2022-08-01T06:22:30;18.40;1.00
13164;DHT22;6647;53.688;10.746;2022-08-01T06:23:51;18.40;1.00
13164;DHT22;6647;53.688;10.746;2022-08-01T06:25:12;18.40;1.00
13164;DHT22;6647;53.688;10.746;2022-08-01T06:26:32;18.40;1.00
13164;DHT22;6647;53.688;10.746;2022-08-01T06:27:53;18.40;1.00
13164;DHT22;6647;53.688;10.746;2022-08-01T06:29:14;18.40;1.00
13164;DHT22;6647;53.688;10.746;2022-08-01T06:30:35;18.40;1.00
13164;DHT22;6647;53.688;10.746;2022-08-01T06:31:56;18.40;1.00
13164;DHT22;6647;53.688;10.746;2022-08-01T06:33:17;18.50;1.00
13164;DHT22;6647;53.688;10.746;2022-08-01T06:34:38;18.50;1.00
13164;DHT22;6647;53.688;10.746;2022-08-01T06:36:00;18.50;1.00
13164;DHT22;6647;53.688;10.746;2022-08-01T06:37:21;18.50;1.00
13164;DHT22;6647;53.688;10.746;2022-08-01T06:38:42;18.50;1.00
13164;DHT22;6647;53.688;10.746;2022-08-01T06:40:07;18.50;1.00
13164;DHT22;6647;53.688;10.746;2022-08-01T06:41:28;18.50;1.00
13164;DHT22;6647;53.688;10.746;2022-08-01T06:42:49;18.50;1.00
13164;DHT22;6647;53.688;10.746;2022-08-01T06:44:10;18.50;1.00
13164;DHT22;6647;53.688;10.746;2022-08-01T06:45:31;18.50;1.00
13164;DHT22;6647;53.688;10.746;2022-08-01T06:46:52;18.60;1.00
13164;DHT22;6647;53.688;10.746;2022-08-01T06:48:12;18.60;1.00
13164;DHT22;6647;53.688;10.746;2022-08-01T06:49:33;18.60;1.00
13164;DHT22;6647;53.688;10.746;2022-08-01T06:50:54;18.60;1.00
13164;DHT22;6647;53.688;10.746;2022-08-01T06:52:28;18.60;1.00
13164;DHT22;6647;53.688;10.746;2022-08-01T06:53:49;18.50;1.00
13164;DHT22;6647;53.688;10.746;2022-08-01T06:55:10;18.50;1.00
13164;DHT22;6647;53.688;10.746;2022-08-01T06:56:31;18.50;1.00
13164;DHT22;6647;53.688;10.746;2022-08-01T06:57:52;18.50;1.00
13164;DHT22;6647;53.688;10.746;2022-08-01T06:59:13;18.50;1.00
13164;DHT22;6647;53.688;10.746;2022-08-01T07:00:34;18.60;1.00
13164;DHT22;6647;53.688;10.746;2022-08-01T07:01:55;18.60;1.00
13164;DHT22;6647;53.688;10.746;2022-08-01T07:03:16;18.70;1.00
13164;DHT22;6647;53.688;10.746;2022-08-01T07:04:37;18.60;1.00
13164;DHT22;6647;53.688;10.746;2022-08-01T07:05:58;18.60;1.00
13164;DHT22;6647;53.688;10.746;2022-08-01T07:07:19;18.60;1.00
13164;DHT22;6647;53.688;10.746;2022-08-01T07:08:40;18.60;1.00
13164;DHT22;6647;53.688;10.746;2022-08-01T07:10:00;18.50;1.00
13164;DHT22;6647;53.688;10.746;2022-08-01T07:11:23;18.60;1.00
13164;DHT22;6647;53.688;10.746;2022-08-01T07:12:44;18.60;1.00
13164;DHT22;6647;53.688;10.746;2022-08-01T07:14:05;18.50;1.00
13164;DHT22;6647;53.688;10.746;2022-08-01T07:15:26;18.50;1.00
13164;DHT22;6647;53.688;10.746;2022-08-01T07:16:47;18.50;1.00
13164;DHT22;6647;53.688;10.746;2022-08-01T07:18:08;18.50;1.00
13164;DHT22;6647;53.688;10.746;2022-08-01T07:19:29;18.40;1.00
13164;DHT22;6647;53.688;10.746;2022-08-01T07:20:50;18.50;1.00
13164;DHT22;6647;53.688;10.746;2022-08-01T07:22:11;18.50;1.00
13164;DHT22;6647;53.688;10.746;2022-08-01T07:23:32;18.50;1.00
13164;DHT22;6647;53.688;10.746;2022-08-01T07:24:53;18.40;1.00
13164;DHT22;6647;53.688;10.746;2022-08-01T07:26:13;18.40;1.00
13164;DHT22;6647;53.688;10.746;2022-08-01T07:27:38;18.40;1.00
13164;DHT22;6647;53.688;10.746;2022-08-01T07:28:59;18.50;1.00
13164;DHT22;6647;53.688;10.746;2022-08-01T07:30:19;18.50;1.00
13164;DHT22;6647;53.688;10.746;2022-08-01T07:31:40;18.50;1.00
13164;DHT22;6647;53.688;10.746;2022-08-01T07:33:02;18.50;1.00
13164;DHT22;6647;53.688;10.746;2022-08-01T07:34:24;18.50;1.00
13164;DHT22;6647;53.688;10.746;2022-08-01T07:35:45;18.50;1.00
13164;DHT22;6647;53.688;10.746;2022-08-01T07:37:06;18.60;1.00
13164;DHT22;6647;53.688;10.746;2022-08-01T07:38:26;18.60;1.00
13164;DHT22;6647;53.688;10.746;2022-08-01T07:39:47;18.60;1.00
13164;DHT22;6647;53.688;10.746;2022-08-01T07:41:08;18.60;1.00
13164;DHT22;6647;53.688;10.746;2022-08-01T07:42:29;18.60;1.00
13164;DHT22;6647;53.688;10.746;2022-08-01T07:43:50;18.60;1.00
13164;DHT22;6647;53.688;10.746;2022-08-01T07:45:11;18.60;1.00
13164;DHT22;6647;53.688;10.746;2022-08-01T07:46:32;18.60;1.00
13164;DHT22;6647;53.688;10.746;2022-08-01T07:47:53;18.60;1.00
13164;DHT22;6647;53.688;10.746;2022-08-01T07:49:15;18.60;1.00
13164;DHT22;6647;53.688;10.746;2022-08-01T07:50:35;18.70;1.00
13164;DHT22;6647;53.688;10.746;2022-08-01T07:51:56;18.60;1.00
13164;DHT22;6647;53.688;10.746;2022-08-01T07:53:17;18.60;1.00
13164;DHT22;6647;53.688;10.746;2022-08-01T07:54:38;18.60;1.00
13164;DHT22;6647;53.688;10.746;2022-08-01T07:55:59;18.60;1.00
13164;DHT22;6647;53.688;10.746;2022-08-01T07:57:20;18.60;1.00
13164;DHT22;6647;53.688;10.746;2022-08-01T07:58:41;18.60;1.00
13164;DHT22;6647;53.688;10.746;2022-08-01T08:00:04;18.60;1.00
13164;DHT22;6647;53.688;10.746;2022-08-01T08:01:30;18.50;1.00
13164;DHT22;6647;53.688;10.746;2022-08-01T08:02:56;18.60;1.00
13164;DHT22;6647;53.688;10.746;2022-08-01T08:04:19;18.60;1.00
13164;DHT22;6647;53.688;10.746;2022-08-01T08:05:40;18.60;1.00
13164;DHT22;6647;53.688;10.746;2022-08-01T08:07:01;18.60;1.00
13164;DHT22;6647;53.688;10.746;2022-08-01T08:08:22;18.60;1.00
13164;DHT22;6647;53.688;10.746;2022-08-01T08:09:45;18.60;1.00
13164;DHT22;6647;53.688;10.746;2022-08-01T08:11:06;18.60;1.00
13164;DHT22;6647;53.688;10.746;2022-08-01T08:12:27;18.60;1.00
13164;DHT22;6647;53.688;10.746;2022-08-01T08:13:48;18.60;1.00
13164;DHT22;6647;53.688;10.746;2022-08-01T08:15:09;18.50;1.00
13164;DHT22;6647;53.688;10.746;2022-08-01T08:16:30;18.50;1.00
13164;DHT22;6647;53.688;10.746;2022-08-01T08:17:51;18.50;1.00
13164;DHT22;6647;53.688;10.746;2022-08-01T08:19:12;18.50;1.00
13164;DHT22;6647;53.688;10.746;2022-08-01T08:20:35;18.50;1.00
13164;DHT22;6647;53.688;10.746;2022-08-01T08:21:56;18.50;1.00
13164;DHT22;6647;53.688;10.746;2022-08-01T08:23:17;18.50;1.00
13164;DHT22;6647;53.688;10.746;2022-08-01T08:24:57;18.50;1.00
13164;DHT22;6647;53.688;10.746;2022-08-01T08:26:17;18.50;1.00
13164;DHT22;6647;53.688;10.746;2022-08-01T08:27:38;18.50;1.00
13164;DHT22;6647;53.688;10.746;2022-08-01T08:28:59;18.50;1.00
13164;DHT22;6647;53.688;10.746;2022-08-01T08:30:20;18.50;1.00
13164;DHT22;6647;53.688;10.746;2022-08-01T08:31:41;18.50;1.00
13164;DHT22;6647;53.688;10.746;2022-08-01T08:33:02;18.40;1.00
13164;DHT22;6647;53.688;10.746;2022-08-01T08:34:24;18.40;1.00
13164;DHT22;6647;53.688;10.746;2022-08-01T08:35:45;18.40;1.00
13164;DHT22;6647;53.688;10.746;2022-08-01T08:37:06;18.40;1.00
13164;DHT22;6647;53.688;10.746;2022-08-01T08:38:29;18.40;1.00
13164;DHT22;6647;53.688;10.746;2022-08-01T08:39:49;18.30;1.00
13164;DHT22;6647;53.688;10.746;2022-08-01T08:41:10;18.30;1.00
13164;DHT22;6647;53.688;10.746;2022-08-01T08:42:32;18.30;1.00
13164;DHT22;6647;53.688;10.746;2022-08-01T08:43:54;18.30;1.00
13164;DHT22;6647;53.688;10.746;2022-08-01T08:45:17;18.20;1.00
13164;DHT22;6647;53.688;10.746;2022-08-01T08:46:41;18.20;1.00
13164;DHT22;6647;53.688;10.746;2022-08-01T08:48:05;18.20;1.00
13164;DHT22;6647;53.688;10.746;2022-08-01T08:49:28;18.30;1.00
13164;DHT22;6647;53.688;10.746;2022-08-01T08:50:49;18.20;1.00
13164;DHT22;6647;53.688;10.746;2022-08-01T08:52:12;18.20;1.00
13164;DHT22;6647;53.688;10.746;2022-08-01T08:53:33;18.20;1.00
13164;DHT22;6647;53.688;10.746;2022-08-01T08:54:56;18.30;1.00
13164;DHT22;6647;53.688;10.746;2022-08-01T08:56:18;18.20;1.00
13164;DHT22;6647;53.688;10.746;2022-08-01T08:57:40;18.20;1.00
13164;DHT22;6647;53.688;10.746;2022-08-01T08:59:03;18.30;1.00
13164;DHT22;6647;53.688;10.746;2022-08-01T09:00:24;18.30;1.00